Time;durP1;ratioP1;P1;durP2;ratioP2;P2;SDS_P1;SDS_P2;PMS_P1;PMS_P2;Temp;Humidity;BMP_temperature;BMP_pressure;BME280_temperature;BME280_humidity;BME280_pressure;Samples;Min_cycle;Max_cycle;Signal;HPM_P1;HPM_P2
2023/04/16 00:02:21;;;;;;;3.95;2.00;;;;;;;19.66;49.53;96489.00;10393204;28;20046;-50
2023/04/16 00:07:41;;;;;;;3.97;1.70;;;;;;;19.65;49.53;96485.53;10393091;28;20046;-50
2023/04/16 00:13:00;;;;;;;3.67;1.75;;;;;;;19.64;49.48;96500.16;10392937;28;20060;-50
2023/04/16 00:18:20;;;;;;;3.90;2.03;;;;;;;19.63;49.47;96486.97;10392686;28;20046;-49
2023/04/16 00:23:39;;;;;;;3.45;1.90;;;;;;;19.61;49.47;96481.91;10392416;28;20046;-50
2023/04/16 00:28:59;;;;;;;4.13;1.83;;;;;;;19.61;49.38;96486.53;10392273;28;20100;-50
2023/04/16 00:34:19;;;;;;;3.15;1.58;;;;;;;19.60;49.34;96487.63;10392663;28;20050;-50
2023/04/16 00:39:39;;;;;;;3.38;1.73;;;;;;;19.59;49.44;96491.47;10391777;28;20033;-51
2023/04/16 00:44:58;;;;;;;3.53;1.80;;;;;;;19.58;49.38;96496.06;10378281;28;20072;-50
2023/04/16 00:50:18;;;;;;;3.45;1.60;;;;;;;19.56;49.26;96488.31;10363581;28;20084;-50
2023/04/16 00:55:38;;;;;;;3.30;1.70;;;;;;;19.56;49.24;96493.72;10377873;28;20072;-51
2023/04/16 01:00:58;;;;;;;2.88;1.60;;;;;;;19.54;49.34;96487.84;10391423;28;20049;-54
2023/04/16 01:06:18;;;;;;;2.92;1.73;;;;;;;19.54;49.34;96498.66;10390838;28;20129;-54
2023/04/16 01:11:38;;;;;;;2.33;1.45;;;;;;;19.52;49.28;96490.09;10390659;28;20046;-54
2023/04/16 01:16:58;;;;;;;2.08;1.45;;;;;;;19.52;49.36;96495.50;10390478;28;20052;-55
2023/04/16 01:22:17;;;;;;;3.05;1.52;;;;;;;19.51;49.30;96495.81;10390058;28;20046;-55
2023/04/16 01:27:37;;;;;;;4.07;1.90;;;;;;;19.50;49.24;96508.56;10376544;28;20080;-54
2023/04/16 01:32:56;;;;;;;2.50;1.60;;;;;;;19.49;49.30;96516.97;10389678;28;20513;-55
2023/04/16 01:38:16;;;;;;;2.65;1.40;;;;;;;19.47;49.33;96514.59;10389527;28;20046;-55
2023/04/16 01:43:36;;;;;;;4.05;1.50;;;;;;;19.46;49.17;96513.00;10374463;28;20042;-54
2023/04/16 01:48:56;;;;;;;3.15;1.45;;;;;;;19.46;49.20;96517.63;10376189;28;20076;-54
2023/04/16 01:54:15;;;;;;;2.60;1.63;;;;;;;19.43;49.20;96513.69;10375979;28;20054;-54
2023/04/16 01:59:35;;;;;;;2.50;1.58;;;;;;;19.43;49.20;96521.78;10375582;28;20494;-55
2023/04/16 02:04:56;;;;;;;2.88;1.60;;;;;;;19.43;49.13;96523.72;10373638;28;20057;-54
2023/04/16 02:10:15;;;;;;;2.47;1.30;;;;;;;19.41;49.11;96521.34;10388369;28;20383;-55
2023/04/16 02:15:34;;;;;;;2.95;1.42;;;;;;;19.39;49.16;96515.47;10388199;28;20503;-54
2023/04/16 02:20:58;;;;;;;2.92;1.58;;;;;;;19.41;49.11;96520.56;10373227;28;20052;-54
2023/04/16 02:26:18;;;;;;;2.45;1.73;;;;;;;19.39;49.19;96528.97;10387754;28;20052;-54
2023/04/16 02:31:38;;;;;;;2.65;1.60;;;;;;;19.38;49.06;96518.50;10372842;28;20050;-54
2023/04/16 02:36:58;;;;;;;2.03;1.20;;;;;;;19.36;49.04;96521.53;10372761;28;20414;-55
2023/04/16 02:42:18;;;;;;;2.45;1.55;;;;;;;19.36;49.15;96524.22;10372544;28;20104;-54
2023/04/16 02:47:38;;;;;;;1.60;1.40;;;;;;;19.34;49.09;96535.34;10372462;28;20494;-54
2023/04/16 02:52:57;;;;;;;2.92;1.27;;;;;;;19.34;49.09;96538.06;10387167;28;20492;-55
2023/04/16 02:58:22;;;;;;;1.27;1.15;;;;;;;19.32;49.07;96529.47;10377921;28;20061;-55
2023/04/16 03:03:42;;;;;;;2.53;1.20;;;;;;;19.31;49.16;96536.03;10372064;28;20403;-54
2023/04/16 03:09:01;;;;;;;2.22;1.30;;;;;;;19.30;49.00;96536.34;10387430;28;20042;-54
2023/04/16 03:14:21;;;;;;;2.47;1.50;;;;;;;19.30;48.96;96536.34;10395244;28;20054;-54
2023/04/16 03:19:40;;;;;;;1.83;1.30;;;;;;;19.29;48.99;96540.19;10394892;28;20042;-54
2023/04/16 03:24:59;;;;;;;1.70;1.08;;;;;;;19.28;49.05;96554.78;10394700;28;20041;-54
2023/04/16 03:30:18;;;;;;;1.98;1.45;;;;;;;19.27;49.07;96554.00;10394688;28;20042;-54
2023/04/16 03:35:38;;;;;;;1.58;1.30;;;;;;;19.26;49.04;96552.41;10394373;28;20049;-54
2023/04/16 03:40:58;;;;;;;1.83;1.30;;;;;;;19.25;48.99;96547.31;10394142;28;20042;-54
2023/04/16 03:46:19;;;;;;;2.22;1.38;;;;;;;19.24;49.02;96559.25;10379143;28;20038;-55
2023/04/16 03:51:38;;;;;;;1.83;1.40;;;;;;;19.24;49.02;96578.16;10393520;28;20046;-54
2023/04/16 03:56:58;;;;;;;1.60;1.23;;;;;;;19.23;48.97;96579.28;10365282;28;20058;-54
2023/04/16 04:02:18;;;;;;;1.65;1.30;;;;;;;19.22;48.80;96588.50;10393488;28;20096;-54
2023/04/16 04:07:38;;;;;;;1.58;1.10;;;;;;;19.20;49.00;96591.53;10378378;28;20053;-54
2023/04/16 04:12:58;;;;;;;1.70;1.17;;;;;;;19.19;48.91;96600.75;10378338;28;20049;-54
2023/04/16 04:18:18;;;;;;;1.88;1.30;;;;;;;19.17;48.98;96611.88;10364333;28;20518;-54
2023/04/16 04:23:40;;;;;;;1.15;1.05;;;;;;;19.17;48.78;96617.28;10377253;28;20046;-55
2023/04/16 04:28:59;;;;;;;2.00;1.20;;;;;;;19.17;48.79;96624.59;10377658;28;20049;-54
2023/04/16 04:34:19;;;;;;;2.08;1.23;;;;;;;19.15;48.90;96629.50;10392265;28;20042;-54
2023/04/16 04:39:39;;;;;;;2.15;1.30;;;;;;;19.14;48.89;96633.34;10392050;28;20049;-54
2023/04/16 04:44:59;;;;;;;1.42;1.10;;;;;;;19.13;48.80;96635.25;10391776;28;20478;-55
2023/04/16 04:50:21;;;;;;;2.08;1.27;;;;;;;19.12;49.03;96644.47;10363372;28;20042;-54
2023/04/16 04:55:41;;;;;;;2.38;1.08;;;;;;;19.10;48.80;96641.28;10374495;28;20050;-54
2023/04/16 05:01:01;;;;;;;2.38;1.23;;;;;;;19.10;48.89;96660.19;10376340;28;20049;-54
2023/04/16 05:06:20;;;;;;;1.50;1.20;;;;;;;19.09;48.86;96661.31;10390816;28;20038;-54
2023/04/16 05:11:41;;;;;;;2.80;1.10;;;;;;;19.10;48.91;96672.91;10377568;28;20053;-54
2023/04/16 05:17:00;;;;;;;2.95;1.25;;;;;;;19.10;49.45;96684.50;10390346;28;20050;-54
2023/04/16 05:22:20;;;;;;;2.40;1.48;;;;;;;19.11;49.53;96696.09;10390208;28;20410;-54
2023/04/16 05:27:40;;;;;;;1.42;1.10;;;;;;;19.11;49.97;96701.47;10376869;28;20050;-54
2023/04/16 05:32:59;;;;;;;1.48;1.00;;;;;;;19.11;49.95;96704.19;10388897;28;20401;-54
2023/04/16 05:38:19;;;;;;;2.63;1.45;;;;;;;19.12;50.35;96711.19;10389613;28;20042;-54
2023/04/16 05:43:38;;;;;;;1.20;1.10;;;;;;;19.12;50.36;96716.59;10389316;28;20069;-54
2023/04/16 05:48:57;;;;;;;1.85;1.20;;;;;;;19.11;50.46;96718.50;10388871;28;20383;-54
2023/04/16 05:54:17;;;;;;;2.05;1.20;;;;;;;19.12;50.33;96722.78;10388275;28;20041;-55
2023/04/16 05:59:36;;;;;;;1.90;1.10;;;;;;;19.11;50.92;96723.09;10374082;28;20050;-54
2023/04/16 06:04:55;;;;;;;3.78;1.40;;;;;;;19.12;51.01;96711.97;10384114;28;20478;-55
2023/04/16 06:10:14;;;;;;;2.45;1.17;;;;;;;19.15;51.17;96724.03;10384099;28;20038;-55
2023/04/16 06:15:34;;;;;;;1.75;1.15;;;;;;;19.15;51.40;96724.84;10385161;28;20104;-54
2023/04/16 06:20:53;;;;;;;2.47;1.10;;;;;;;19.16;51.70;96729.09;10388060;28;20045;-54
2023/04/16 06:26:13;;;;;;;1.48;1.38;;;;;;;19.19;51.65;96730.38;10387787;28;20046;-54
2023/04/16 06:31:32;;;;;;;1.17;0.90;;;;;;;19.19;51.61;96729.56;10387656;28;20041;-55
2023/04/16 06:36:52;;;;;;;3.60;1.38;;;;;;;19.20;51.85;96725.78;10387587;28;20054;-54
2023/04/16 06:42:11;;;;;;;1.63;1.15;;;;;;;19.21;51.92;96728.16;10387357;28;20042;-55
2023/04/16 06:47:31;;;;;;;1.23;1.10;;;;;;;19.22;51.93;96737.81;10387266;28;20041;-54
2023/04/16 06:52:50;;;;;;;1.63;1.17;;;;;;;19.23;52.31;96746.72;10386999;28;20049;-55
2023/04/16 06:58:10;;;;;;;4.50;1.30;;;;;;;19.24;52.29;96740.22;10378253;28;20050;-54
2023/04/16 07:03:30;;;;;;;2.63;1.33;;;;;;;19.27;52.43;96747.69;10386952;28;20042;-55
2023/04/16 07:08:49;;;;;;;5.00;1.45;;;;;;;19.29;52.57;96750.84;10386865;28;20100;-57
2023/04/16 07:14:08;;;;;;;2.72;1.42;;;;;;;19.30;52.23;96758.59;10373455;28;20058;-57
2023/04/16 07:19:31;;;;;;;3.83;1.25;;;;;;;19.30;52.18;96757.81;10386374;28;20045;-56
2023/04/16 07:24:51;;;;;;;6.70;1.40;;;;;;;19.34;52.47;96762.25;10373335;28;20076;-55
2023/04/16 07:30:10;;;;;;;5.05;1.50;;;;;;;19.36;52.84;96767.31;10386453;28;20046;-60
2023/04/16 07:35:30;;;;;;;4.28;1.45;;;;;;;19.42;53.07;96776.84;10371238;28;20405;-54
2023/04/16 07:40:50;;;;;;;5.78;1.63;;;;;;;19.44;52.55;96777.31;10385938;28;20096;-54
2023/04/16 07:46:10;;;;;;;6.05;1.60;;;;;;;19.47;51.73;96781.28;10385410;28;20042;-56
2023/04/16 07:51:30;;;;;;;2.35;1.73;;;;;;;19.48;52.02;96789.06;10384893;28;20401;-57
2023/04/16 07:56:49;;;;;;;2.58;1.77;;;;;;;19.51;51.57;96787.63;10384494;28;20050;-56
2023/04/16 08:02:12;;;;;;;5.32;1.83;;;;;;;19.54;50.82;96781.56;10393368;28;20046;-56
2023/04/16 08:07:31;;;;;;;8.02;2.28;;;;;;;19.57;49.94;96794.44;10378040;28;20038;-50
2023/04/16 08:12:51;;;;;;;4.50;3.42;;;;;;;19.47;44.65;96797.50;10392608;28;20046;-53
2023/04/16 08:18:14;;;;;;;5.18;2.55;;;;;;;19.52;45.53;96798.13;10392258;28;20052;-53
2023/04/16 08:23:33;;;;;;;7.70;3.28;;;;;;;19.58;44.19;96801.41;10392180;28;20406;-50
2023/04/16 08:28:53;;;;;;;3.22;2.63;;;;;;;19.62;44.35;96809.66;10391903;28;20050;-53
2023/04/16 08:34:13;;;;;;;3.63;3.13;;;;;;;19.64;43.70;96815.53;10391934;28;20048;-52
2023/04/16 08:39:32;;;;;;;3.92;3.47;;;;;;;19.66;42.83;96818.72;10391657;28;20054;-53
2023/04/16 08:45:03;;;;;;;33.40;10.00;;;;;;;19.69;45.49;96812.66;10390923;28;20038;-52
2023/04/16 08:50:24;;;;;;;75.85;22.38;;;;;;;19.75;48.42;96816.81;10376457;28;20052;-52
2023/04/16 08:55:48;;;;;;;70.10;22.38;;;;;;;19.82;50.08;96830.63;10400125;23;20065;-71
2023/04/16 09:01:09;;;;;;;74.38;22.95;;;;;;;19.86;51.63;96828.84;10362531;28;20046;-71
2023/04/16 09:06:30;;;;;;;75.65;22.60;;;;;;;19.91;52.48;96835.97;10375601;28;20520;-71
2023/04/16 09:11:50;;;;;;;65.85;18.70;;;;;;;19.95;53.61;96831.50;10389146;28;20398;-72
2023/04/16 09:17:11;;;;;;;78.35;25.30;;;;;;;19.99;54.16;96843.25;10375799;28;20120;-71
2023/04/16 09:22:31;;;;;;;400.33;104.10;;;;;;;20.05;55.31;96846.56;10361882;28;20045;-71
2023/04/16 09:27:50;;;;;;;288.45;73.65;;;;;;;20.05;55.38;96843.84;10375326;28;20100;-72
2023/04/16 09:33:15;;;;;;;117.40;32.22;;;;;;;20.04;47.58;96847.69;10361616;28;20056;-72
2023/04/16 09:38:48;;;;;;;167.60;48.88;;;;;;;20.01;49.92;96838.31;10374853;28;20042;-71
2023/04/16 09:44:07;;;;;;;147.20;43.10;;;;;;;20.02;52.55;96847.22;10374560;28;20037;-72
2023/04/16 09:49:26;;;;;;;172.18;43.90;;;;;;;20.05;52.84;96854.66;10374361;28;20406;-71
2023/04/16 09:54:51;;;;;;;138.20;39.90;;;;;;;20.08;53.44;96848.63;10371847;28;20391;-71
2023/04/16 10:00:11;;;;;;;147.18;39.60;;;;;;;20.10;52.92;96851.78;10360119;28;20041;-71
2023/04/16 10:05:31;;;;;;;128.90;36.92;;;;;;;20.13;52.78;96853.81;10388510;28;20073;-71
2023/04/16 10:10:53;;;;;;;112.85;34.63;;;;;;;20.15;53.62;96857.81;10360603;28;20074;-71
2023/04/16 10:16:12;;;;;;;105.60;32.85;;;;;;;20.19;54.25;96865.25;10388159;28;20097;-71
2023/04/16 10:21:32;;;;;;;105.35;31.15;;;;;;;20.19;54.66;96852.56;10359185;28;20049;-70
2023/04/16 10:26:52;;;;;;;93.35;28.25;;;;;;;20.20;55.09;96854.13;10374342;28;20046;-71
2023/04/16 10:32:12;;;;;;;89.22;27.92;;;;;;;20.21;54.78;96850.31;10387598;28;20041;-70
2023/04/16 10:37:32;;;;;;;95.82;28.20;;;;;;;20.23;54.55;96858.06;10372670;28;20046;-71
2023/04/16 10:42:58;;;;;;;91.45;27.88;;;;;;;20.24;54.26;96855.06;10372477;28;20553;-71
2023/04/16 10:48:18;;;;;;;50.92;16.17;;;;;;;20.23;52.64;96858.88;10358440;28;20528;-70
2023/04/16 10:53:37;;;;;;;71.68;22.95;;;;;;;20.21;52.87;96858.44;10371762;28;20049;-71
2023/04/16 10:58:57;;;;;;;63.90;21.55;;;;;;;20.23;53.30;96864.31;10358243;28;20116;-70
2023/04/16 11:04:19;;;;;;;68.10;22.00;;;;;;;20.25;53.40;96864.75;10371230;28;20053;-71
2023/04/16 11:09:51;;;;;;;63.22;21.40;;;;;;;20.26;53.59;96857.44;10371641;28;20046;-70
2023/04/16 11:15:12;;;;;;;57.92;20.42;;;;;;;20.25;53.53;96862.06;10385986;28;20046;-71
2023/04/16 11:20:32;;;;;;;50.33;16.98;;;;;;;20.24;53.33;96860.47;10371685;28;20122;-71
2023/04/16 11:25:56;;;;;;;48.15;16.55;;;;;;;20.24;52.82;96865.88;10371780;28;20482;-71
2023/04/16 11:31:15;;;;;;;43.75;15.13;;;;;;;20.24;52.67;96876.69;10389396;28;20486;-71
2023/04/16 11:36:42;;;;;;;18.70;7.78;;;;;;;20.19;44.94;96866.06;10379626;28;20050;-71
2023/04/16 11:42:02;;;;;;;27.17;10.68;;;;;;;20.16;48.41;96869.41;10379103;28;20054;-72
2023/04/16 11:47:23;;;;;;;32.20;12.23;;;;;;;20.18;48.88;96866.41;10378836;28;20041;-72
2023/04/16 11:52:42;;;;;;;29.40;10.57;;;;;;;20.20;49.04;96880.38;10379088;28;20042;-71
2023/04/16 11:58:12;;;;;;;31.45;11.50;;;;;;;20.22;49.48;96875.44;10367532;28;20061;-72
2023/04/16 12:03:42;;;;;;;30.50;11.07;;;;;;;20.23;49.39;96877.00;10378528;28;20042;-72
2023/04/16 12:09:21;;;;;;;30.90;10.93;;;;;;;20.23;49.72;96871.59;10379534;28;20048;-72
2023/04/16 12:14:51;;;;;;;28.92;10.40;;;;;;;20.23;49.76;96879.72;10378127;28;20046;-71
2023/04/16 12:20:14;;;;;;;27.20;9.93;;;;;;;20.22;50.06;96884.34;10377935;28;20111;-71
2023/04/16 12:25:34;;;;;;;20.40;7.82;;;;;;;20.20;49.88;96870.34;10392557;28;20120;-71
2023/04/16 12:30:53;;;;;;;23.48;8.75;;;;;;;20.20;49.99;96881.16;10377598;28;20053;-71
2023/04/16 12:36:17;;;;;;;27.80;8.35;;;;;;;20.21;49.97;96871.94;10349817;28;20046;-71
2023/04/16 12:41:42;;;;;;;22.38;8.73;;;;;;;20.21;50.04;96873.84;10362975;28;20437;-71
2023/04/16 12:47:03;;;;;;;18.35;6.40;;;;;;;20.20;49.46;96877.69;10376949;28;20168;-71
2023/04/16 12:52:26;;;;;;;19.23;7.57;;;;;;;20.16;49.05;96866.72;10376826;28;20046;-71
2023/04/16 12:57:47;;;;;;;13.82;5.38;;;;;;;20.14;48.19;96871.66;10365998;28;20054;-71
2023/04/16 13:03:07;;;;;;;12.45;5.35;;;;;;;20.11;48.41;96862.28;10362817;28;20046;-71
2023/04/16 13:08:26;;;;;;;7.70;3.70;;;;;;;19.87;39.36;96857.44;10376020;28;20490;-71
2023/04/16 13:13:45;;;;;;;4.72;2.63;;;;;;;19.68;38.93;96847.03;10390689;28;20414;-71
2023/04/16 13:19:05;;;;;;;6.88;2.70;;;;;;;19.82;43.26;96849.53;10390455;28;20046;-72
2023/04/16 13:24:24;;;;;;;6.30;2.65;;;;;;;19.91;44.24;96857.59;10375346;28;20049;-71
2023/04/16 13:29:44;;;;;;;3.53;2.42;;;;;;;19.93;43.65;96860.78;10362045;28;20045;-71
2023/04/16 13:35:03;;;;;;;3.83;2.20;;;;;;;19.95;43.86;96859.34;10375986;28;20053;-71
2023/04/16 13:40:23;;;;;;;2.70;2.08;;;;;;;19.95;43.73;96864.75;10375166;28;20387;-71
2023/04/16 13:45:42;;;;;;;3.38;2.30;;;;;;;19.95;43.45;96856.66;10360766;28;20038;-71
2023/04/16 13:51:02;;;;;;;2.88;2.35;;;;;;;19.95;43.13;96856.66;10374476;28;20048;-72
2023/04/16 13:56:21;;;;;;;3.05;2.40;;;;;;;19.96;40.46;96854.72;10353121;28;20124;-72
2023/04/16 14:01:41;;;;;;;6.30;2.40;;;;;;;19.92;41.88;96854.56;10388792;28;20046;-71
2023/04/16 14:07:00;;;;;;;3.70;2.25;;;;;;;19.93;42.40;96852.66;10373695;28;20117;-72
2023/04/16 14:12:20;;;;;;;3.92;2.40;;;;;;;19.95;41.87;96848.53;10373662;28;20042;-71
2023/04/16 14:17:42;;;;;;;5.15;2.53;;;;;;;19.94;37.69;96852.34;10373403;28;20042;-72
2023/04/16 14:23:02;;;;;;;2.60;2.40;;;;;;;19.90;37.54;96851.41;10359484;28;20042;-71
2023/04/16 14:28:22;;;;;;;2.25;2.05;;;;;;;19.87;36.01;96845.84;10387662;28;20045;-71
2023/04/16 14:33:42;;;;;;;2.00;1.90;;;;;;;19.81;34.77;96839.81;10345490;28;20042;-71
2023/04/16 14:39:01;;;;;;;3.33;1.98;;;;;;;19.73;35.57;96841.44;10358767;28;20038;-71
2023/04/16 14:44:21;;;;;;;3.92;2.20;;;;;;;19.77;37.24;96844.31;10372650;28;20037;-72
2023/04/16 14:49:41;;;;;;;3.35;2.00;;;;;;;19.75;37.99;96843.84;10358803;28;20046;-72
2023/04/16 14:55:00;;;;;;;7.30;3.25;;;;;;;19.76;39.22;96842.72;10369233;28;20058;-72
2023/04/16 15:00:20;;;;;;;7.18;2.72;;;;;;;19.76;39.17;96842.72;10386857;28;20053;-72
2023/04/16 15:05:40;;;;;;;3.03;2.20;;;;;;;19.74;37.58;96853.84;10392879;28;20045;-71
2023/04/16 15:10:59;;;;;;;2.45;2.20;;;;;;;19.77;36.57;96844.31;10385385;28;20046;-71
2023/04/16 15:16:18;;;;;;;3.00;2.30;;;;;;;19.78;35.15;96854.00;10385227;28;20050;-71
2023/04/16 15:21:38;;;;;;;2.60;2.03;;;;;;;19.74;34.85;96853.84;10371866;28;20049;-71
2023/04/16 15:26:58;;;;;;;3.53;2.30;;;;;;;19.73;35.22;96852.25;10399989;28;20042;-71
2023/04/16 15:32:17;;;;;;;2.90;2.13;;;;;;;19.74;34.84;96847.66;10385254;28;20474;-72
2023/04/16 15:37:37;;;;;;;1.88;1.77;;;;;;;19.77;34.43;96860.53;10371330;28;20053;-72
2023/04/16 15:42:57;;;;;;;2.33;1.80;;;;;;;19.78;35.92;96869.41;10399299;28;20064;-72
2023/04/16 15:48:17;;;;;;;22.85;15.73;;;;;;;19.77;39.05;96857.81;10382273;28;20104;-71
2023/04/16 15:53:36;;;;;;;7.10;5.70;;;;;;;19.80;38.24;96861.78;10370933;28;20053;-71
2023/04/16 15:58:56;;;;;;;3.40;2.90;;;;;;;19.83;36.30;96870.03;10371146;28;20057;-71
2023/04/16 16:04:15;;;;;;;3.28;2.42;;;;;;;19.83;35.98;96875.44;10371084;28;20406;-72
2023/04/16 16:09:35;;;;;;;2.97;2.22;;;;;;;19.83;35.66;96878.16;10399948;28;20041;-71
2023/04/16 16:14:54;;;;;;;2.70;2.17;;;;;;;19.84;35.00;96876.25;10385027;28;20042;-72
2023/04/16 16:20:14;;;;;;;37.33;24.27;;;;;;;19.85;35.63;96881.31;10376076;28;20406;-71
2023/04/16 16:25:34;;;;;;;25.65;18.00;;;;;;;19.86;37.80;96891.03;10350903;28;20042;-71
2023/04/16 16:30:54;;;;;;;23.88;16.30;;;;;;;19.86;38.71;96887.53;10388993;28;20038;-72
2023/04/16 16:36:14;;;;;;;19.92;14.48;;;;;;;19.89;40.08;96890.38;10388049;28;20050;-70
2023/04/16 16:41:40;;;;;;;18.50;13.00;;;;;;;19.92;41.02;96894.34;10359881;28;20042;-72
2023/04/16 16:47:00;;;;;;;21.30;14.02;;;;;;;19.93;41.47;96894.03;10373765;28;20046;-71
2023/04/16 16:52:24;;;;;;;15.07;10.90;;;;;;;19.98;42.09;96900.38;10373695;28;20037;-71
2023/04/16 16:57:44;;;;;;;19.27;12.07;;;;;;;20.00;42.55;96911.66;10381035;28;20437;-72
2023/04/16 17:03:03;;;;;;;15.18;11.07;;;;;;;20.00;42.87;96907.03;10349577;28;20042;-71
2023/04/16 17:08:22;;;;;;;17.88;11.85;;;;;;;20.01;43.25;96915.94;10362694;28;20049;-72
2023/04/16 17:13:42;;;;;;;15.32;10.57;;;;;;;20.04;43.63;96918.00;10362881;28;20475;-71
2023/04/16 17:19:02;;;;;;;15.48;12.40;;;;;;;20.03;43.90;96924.50;10375867;28;20104;-71
2023/04/16 17:24:21;;;;;;;15.88;11.70;;;;;;;20.04;44.11;96928.81;10375355;28;20037;-71
2023/04/16 17:29:40;;;;;;;15.88;11.38;;;;;;;20.05;44.37;96928.50;10374040;28;20042;-71
2023/04/16 17:35:02;;;;;;;11.90;9.18;;;;;;;20.06;44.76;96934.69;10374763;28;20490;-71
2023/04/16 17:40:22;;;;;;;15.15;10.65;;;;;;;20.06;45.01;96945.50;10361202;28;20053;-71
2023/04/16 17:45:41;;;;;;;14.95;10.40;;;;;;;20.07;45.95;96955.19;10360619;28;20042;-71
2023/04/16 17:51:08;;;;;;;17.23;9.73;;;;;;;20.08;47.13;96954.09;10374328;28;20045;-72
2023/04/16 17:56:27;;;;;;;12.70;8.75;;;;;;;20.09;47.54;96966.50;10367197;28;20058;-71
2023/04/16 18:01:48;;;;;;;14.20;10.27;;;;;;;20.08;47.85;96979.22;10373970;28;20050;-72
2023/04/16 18:07:08;;;;;;;16.13;10.25;;;;;;;20.11;48.35;96985.88;10360973;28;20057;-72
2023/04/16 18:12:27;;;;;;;17.30;9.68;;;;;;;20.08;48.78;96989.25;10360665;28;20038;-71
2023/04/16 18:17:47;;;;;;;14.85;10.10;;;;;;;20.10;49.18;97000.53;10388841;28;20049;-72
2023/04/16 18:23:07;;;;;;;16.02;8.50;;;;;;;20.11;49.72;97002.13;10371784;28;20038;-71
2023/04/16 18:28:27;;;;;;;9.43;6.30;;;;;;;20.10;49.73;97008.66;10370745;28;20045;-72
2023/04/16 18:33:47;;;;;;;14.18;8.05;;;;;;;20.09;50.22;97015.16;10373000;28;20049;-71
2023/04/16 18:39:07;;;;;;;10.13;8.07;;;;;;;20.10;50.25;97016.78;10372636;28;20041;-71
2023/04/16 18:44:26;;;;;;;11.88;8.50;;;;;;;20.10;50.53;97024.88;10359252;28;20457;-72
2023/04/16 18:49:46;;;;;;;15.90;8.88;;;;;;;20.10;50.40;97033.00;10388044;28;20042;-72
2023/04/16 18:55:06;;;;;;;14.45;8.95;;;;;;;20.09;50.75;97037.63;10368921;28;20050;-72
2023/04/16 19:00:25;;;;;;;14.45;9.30;;;;;;;20.10;50.84;97038.41;10371945;28;20501;-72
2023/04/16 19:05:45;;;;;;;10.95;6.60;;;;;;;20.12;50.98;97041.59;10358073;28;20069;-72
2023/04/16 19:11:05;;;;;;;11.70;8.68;;;;;;;20.11;51.22;97046.22;10371926;28;20046;-72
2023/04/16 19:16:25;;;;;;;13.48;9.05;;;;;;;20.12;51.42;97047.00;10371969;28;20409;-71
2023/04/16 19:21:44;;;;;;;12.48;7.78;;;;;;;20.11;51.70;97046.22;10373009;28;20057;-72
2023/04/16 19:27:04;;;;;;;11.77;8.30;;;;;;;20.11;51.67;97051.63;10357881;28;20049;-72
2023/04/16 19:32:24;;;;;;;12.80;8.05;;;;;;;20.11;51.79;97059.72;10371620;28;20442;-72
2023/04/16 19:37:44;;;;;;;9.68;6.20;;;;;;;20.10;51.84;97055.41;10371421;28;20060;-71
2023/04/16 19:43:04;;;;;;;14.85;7.68;;;;;;;20.10;52.00;97060.03;10357796;28;20042;-72
2023/04/16 19:48:23;;;;;;;9.45;6.72;;;;;;;20.10;51.94;97055.41;10344233;28;20042;-72
2023/04/16 19:53:43;;;;;;;9.13;6.57;;;;;;;20.09;52.48;97061.16;10362513;28;20516;-72
2023/04/16 19:59:02;;;;;;;11.60;8.57;;;;;;;20.10;52.50;97065.44;10364731;28;20042;-74
2023/04/16 20:04:22;;;;;;;13.55;7.65;;;;;;;20.09;52.74;97069.25;10365004;28;20045;-74
2023/04/16 20:09:41;;;;;;;11.50;7.38;;;;;;;20.09;52.62;97071.97;10378536;28;20053;-73
2023/04/16 20:15:01;;;;;;;10.02;7.65;;;;;;;20.07;52.60;97083.13;10393185;28;20037;-73
2023/04/16 20:20:22;;;;;;;10.43;7.25;;;;;;;20.07;52.82;97087.72;10392906;28;20042;-73
2023/04/16 20:25:42;;;;;;;10.32;6.85;;;;;;;20.07;52.64;97087.72;10377636;28;20051;-72
2023/04/16 20:31:01;;;;;;;10.88;7.40;;;;;;;20.08;52.75;97081.22;10391667;28;20545;-72
2023/04/16 20:36:21;;;;;;;8.57;6.93;;;;;;;20.08;52.59;97079.28;10363761;28;20046;-72
2023/04/16 20:41:42;;;;;;;8.57;7.15;;;;;;;20.07;52.59;97079.59;10377033;28;20061;-72
2023/04/16 20:47:02;;;;;;;8.35;6.55;;;;;;;20.07;52.47;97077.72;10363364;28;20445;-72
2023/04/16 20:52:21;;;;;;;11.57;6.93;;;;;;;20.06;52.01;97086.94;10349534;28;20048;-72
2023/04/16 20:57:41;;;;;;;9.20;7.40;;;;;;;20.07;52.38;97085.00;10380011;28;20532;-72
2023/04/16 21:03:01;;;;;;;10.73;6.97;;;;;;;20.05;52.34;97090.78;10362315;28;20042;-72
2023/04/16 21:08:21;;;;;;;8.65;6.03;;;;;;;20.06;52.24;97094.25;10376017;28;20482;-73
2023/04/16 21:13:40;;;;;;;9.02;6.82;;;;;;;20.06;52.11;97094.25;10362070;28;20053;-72
2023/04/16 21:19:00;;;;;;;10.20;6.25;;;;;;;20.04;52.04;97094.56;10375675;28;20042;-73
2023/04/16 21:24:20;;;;;;;7.95;6.30;;;;;;;20.04;52.05;97088.38;10348264;28;20049;-73
2023/04/16 21:29:39;;;;;;;8.50;6.40;;;;;;;20.02;52.00;97083.28;10390446;28;20042;-74
2023/04/16 21:34:59;;;;;;;9.85;6.05;;;;;;;20.02;52.04;97082.50;10361927;28;20069;-73
2023/04/16 21:40:19;;;;;;;8.80;5.72;;;;;;;20.02;51.83;97087.91;10389524;28;20445;-73
2023/04/16 21:45:39;;;;;;;9.98;6.00;;;;;;;20.01;51.88;97094.41;10374803;28;20438;-73
2023/04/16 21:51:05;;;;;;;6.22;5.53;;;;;;;20.00;51.88;97093.63;10361051;28;20398;-73
2023/04/16 21:56:24;;;;;;;8.40;5.95;;;;;;;19.99;51.78;97089.31;10354824;28;20054;-73
2023/04/16 22:01:44;;;;;;;8.10;5.93;;;;;;;19.99;51.90;97092.03;10376304;28;20045;-73
2023/04/16 22:07:04;;;;;;;6.43;5.45;;;;;;;19.98;51.66;97095.84;10376558;28;20053;-73
2023/04/16 22:12:25;;;;;;;6.55;5.80;;;;;;;19.97;51.91;97093.47;10374898;28;20090;-73
2023/04/16 22:17:45;;;;;;;7.55;5.82;;;;;;;19.97;51.67;97085.34;10360705;28;20046;-73
2023/04/16 22:23:05;;;;;;;6.90;5.82;;;;;;;19.95;51.77;97093.78;10360849;28;20038;-72
2023/04/16 22:28:25;;;;;;;8.65;5.53;;;;;;;19.95;51.77;97091.88;10374056;28;20050;-73
2023/04/16 22:33:44;;;;;;;7.28;5.30;;;;;;;19.95;51.66;97091.88;10373645;28;20057;-73
2023/04/16 22:39:07;;;;;;;6.57;5.38;;;;;;;19.96;51.62;97092.69;10373411;28;20050;-73
2023/04/16 22:44:26;;;;;;;6.28;5.07;;;;;;;19.94;51.54;97084.88;10360313;28;20422;-72
2023/04/16 22:49:46;;;;;;;6.70;5.07;;;;;;;19.94;51.54;97086.78;10373392;28;20056;-73
2023/04/16 22:55:07;;;;;;;6.35;5.13;;;;;;;19.93;51.54;97079.78;10355886;28;20498;-73
2023/04/16 23:00:27;;;;;;;6.50;5.25;;;;;;;19.92;51.54;97070.88;10373238;28;20042;-72
2023/04/16 23:05:47;;;;;;;5.97;5.00;;;;;;;19.91;51.43;97074.69;10372803;28;20046;-72
2023/04/16 23:11:07;;;;;;;6.05;5.18;;;;;;;19.90;51.50;97075.03;10372071;28;20057;-72
2023/04/16 23:16:27;;;;;;;6.60;5.05;;;;;;;19.89;51.44;97074.22;10386714;28;20046;-72
2023/04/16 23:21:47;;;;;;;6.68;4.85;;;;;;;19.88;51.26;97069.94;10386731;28;20045;-72
2023/04/16 23:27:06;;;;;;;6.50;4.82;;;;;;;19.87;51.42;97071.03;10349196;28;20048;-72
2023/04/16 23:32:26;;;;;;;5.07;4.57;;;;;;;19.84;51.39;97066.28;10394753;28;20053;-72
2023/04/16 23:37:45;;;;;;;5.15;4.38;;;;;;;19.84;51.39;97066.28;10379801;28;20050;-72
2023/04/16 23:43:04;;;;;;;6.25;4.72;;;;;;;19.83;51.53;97070.09;10379529;28;20478;-72
2023/04/16 23:48:24;;;;;;;6.18;4.22;;;;;;;19.82;51.54;97065.81;10365548;28;20103;-72
2023/04/16 23:53:43;;;;;;;5.80;4.40;;;;;;;19.79;51.59;97058.31;10365415;28;20050;-72
2023/04/16 23:59:02;;;;;;;5.10;4.20;;;;;;;19.81;51.75;97066.91;10378967;28;20042;-72
